createdAt,value
2019-03-29T00:01:59.867Z,10.40
2019-03-29T00:04:27.527Z,10.30
2019-03-29T00:06:55.019Z,10.30
2019-03-29T00:09:22.820Z,10.30
2019-03-29T00:11:50.362Z,10.30
2019-03-29T00:14:18.467Z,10.30
2019-03-29T00:16:46.135Z,10.20
2019-03-29T00:19:24.014Z,10.20
2019-03-29T00:21:51.909Z,10.20
2019-03-29T00:24:20.032Z,10.30
2019-03-29T00:26:47.849Z,10.40
2019-03-29T00:29:15.486Z,10.30
2019-03-29T00:31:43.445Z,10.20
2019-03-29T00:34:11.207Z,10.20
2019-03-29T00:36:38.799Z,10.20
2019-03-29T00:39:06.722Z,10.20
2019-03-29T00:41:37.650Z,10.20
2019-03-29T00:44:05.534Z,10.30
2019-03-29T00:46:33.372Z,10.30
2019-03-29T00:49:01.237Z,10.20
2019-03-29T00:51:29.193Z,10.20
2019-03-29T00:53:56.722Z,10.20
2019-03-29T00:56:24.302Z,10.20
2019-03-29T00:58:51.968Z,10.10
2019-03-29T01:01:19.698Z,10.20
2019-03-29T01:03:47.435Z,10.10
2019-03-29T01:06:15.722Z,10.20
2019-03-29T01:08:43.581Z,10.20
2019-03-29T01:11:11.587Z,10.20
2019-03-29T01:13:39.675Z,10.20
2019-03-29T01:16:07.403Z,10.20
2019-03-29T01:18:34.980Z,10.20
2019-03-29T01:21:02.616Z,10.30
2019-03-29T01:23:30.375Z,10.20
2019-03-29T01:25:58.380Z,10.30
2019-03-29T01:28:27.051Z,10.20
2019-03-29T01:30:57.202Z,10.20
2019-03-29T01:33:25.315Z,10.20
2019-03-29T01:35:53.830Z,10.20
2019-03-29T01:38:24.063Z,10.20
2019-03-29T01:40:53.331Z,10.20
2019-03-29T01:43:20.898Z,10.20
2019-03-29T01:45:48.469Z,10.20
2019-03-29T01:48:17.858Z,10.20
2019-03-29T01:50:45.372Z,10.20
2019-03-29T01:53:13.011Z,10.20
2019-03-29T01:55:40.752Z,10.20
2019-03-29T01:58:08.582Z,10.20
2019-03-29T02:00:36.538Z,10.20
2019-03-29T02:03:04.682Z,10.20
2019-03-29T02:05:32.447Z,10.20
2019-03-29T02:08:00.231Z,10.10
2019-03-29T02:10:28.342Z,10.20
2019-03-29T02:13:00.645Z,10.20
2019-03-29T02:15:29.047Z,10.20
2019-03-29T02:17:58.257Z,10.20
2019-03-29T02:20:26.659Z,10.10
2019-03-29T02:22:54.597Z,10.10
2019-03-29T02:25:22.400Z,10.10
2019-03-29T02:27:50.558Z,10.20
2019-03-29T02:30:18.313Z,10.10
2019-03-29T02:32:46.329Z,10.00
2019-03-29T02:35:14.047Z,10.10
2019-03-29T02:37:41.700Z,10.10
2019-03-29T02:40:09.332Z,10.20
2019-03-29T02:42:36.846Z,10.20
2019-03-29T02:45:05.243Z,10.20
2019-03-29T02:47:33.578Z,10.20
2019-03-29T02:50:01.308Z,10.20
2019-03-29T02:52:28.970Z,10.30
2019-03-29T02:54:56.622Z,10.20
2019-03-29T02:57:24.180Z,10.20
2019-03-29T02:59:53.117Z,10.20
2019-03-29T03:02:20.762Z,10.20
2019-03-29T03:04:49.361Z,10.20
2019-03-29T03:07:17.021Z,10.30
2019-03-29T03:09:44.604Z,10.30
2019-03-29T03:12:12.247Z,10.20
2019-03-29T03:14:39.869Z,10.10
2019-03-29T03:17:07.558Z,10.10
2019-03-29T03:19:35.215Z,10.10
2019-03-29T03:22:06.082Z,10.10
2019-03-29T03:24:33.729Z,10.10
2019-03-29T03:27:01.617Z,10.20
2019-03-29T03:29:29.619Z,10.20
2019-03-29T03:31:57.174Z,10.20
2019-03-29T03:34:25.011Z,10.20
2019-03-29T03:36:52.657Z,10.20
2019-03-29T03:39:31.367Z,10.20
2019-03-29T03:41:50.199Z,10.20
2019-03-29T03:44:19.580Z,10.20
2019-03-29T03:46:47.184Z,10.30
2019-03-29T03:49:14.808Z,10.20
2019-03-29T03:51:43.019Z,10.20
2019-03-29T03:54:11.182Z,10.20
2019-03-29T03:56:38.891Z,10.20
2019-03-29T03:59:07.136Z,10.20
2019-03-29T04:01:35.023Z,10.20
2019-03-29T04:04:02.656Z,10.20
2019-03-29T04:06:30.638Z,10.30
2019-03-29T04:08:58.559Z,10.30
2019-03-29T04:11:26.985Z,10.40
2019-03-29T04:13:54.748Z,10.40
2019-03-29T04:16:23.367Z,10.30
2019-03-29T04:18:51.347Z,10.30
2019-03-29T04:21:19.213Z,10.40
2019-03-29T04:23:46.833Z,10.40
2019-03-29T04:26:14.512Z,10.40
2019-03-29T04:28:44.907Z,10.30
2019-03-29T04:31:12.527Z,10.40
2019-03-29T04:33:40.215Z,10.30
2019-03-29T04:36:07.974Z,10.40
2019-03-29T04:38:35.595Z,10.30
2019-03-29T04:41:03.649Z,10.30
2019-03-29T04:43:31.488Z,10.30
2019-03-29T04:45:59.006Z,10.30
2019-03-29T04:48:27.780Z,10.40
2019-03-29T04:50:55.299Z,10.40
2019-03-29T04:53:22.863Z,10.40
2019-03-29T04:55:50.582Z,10.50
2019-03-29T04:58:18.151Z,10.40
2019-03-29T05:00:45.854Z,10.40
2019-03-29T05:03:14.020Z,10.50
2019-03-29T05:05:43.546Z,10.50
2019-03-29T05:08:11.500Z,10.50
2019-03-29T05:10:39.498Z,10.60
2019-03-29T05:13:07.216Z,10.50
2019-03-29T05:15:34.885Z,10.60
2019-03-29T05:18:02.866Z,10.60
2019-03-29T05:20:30.836Z,10.60
2019-03-29T05:22:59.523Z,10.60
2019-03-29T05:25:27.185Z,10.70
2019-03-29T05:27:54.739Z,10.60
2019-03-29T05:30:22.287Z,10.60
2019-03-29T05:32:50.163Z,10.60
2019-03-29T05:35:18.759Z,10.60
2019-03-29T05:37:46.576Z,10.60
2019-03-29T05:40:14.382Z,10.60
2019-03-29T05:42:42.450Z,10.60
2019-03-29T05:45:10.544Z,10.60
2019-03-29T05:47:38.466Z,10.60
2019-03-29T05:50:06.650Z,10.70
2019-03-29T05:52:34.251Z,10.70
2019-03-29T05:55:02.099Z,10.70
2019-03-29T05:57:29.723Z,10.70
2019-03-29T05:59:57.283Z,10.70
2019-03-29T06:02:24.969Z,10.80
2019-03-29T06:04:52.962Z,10.80
2019-03-29T06:07:20.780Z,10.80
2019-03-29T06:09:48.354Z,10.80
2019-03-29T06:12:16.241Z,10.80
2019-03-29T06:14:43.828Z,10.80
2019-03-29T06:17:11.794Z,10.80
2019-03-29T06:19:39.984Z,10.80
2019-03-29T06:22:07.655Z,10.70
2019-03-29T06:24:35.603Z,10.70
2019-03-29T06:27:03.660Z,10.70
2019-03-29T06:29:31.491Z,10.60
2019-03-29T06:31:59.129Z,10.60
2019-03-29T06:34:26.950Z,10.60
2019-03-29T06:36:57.051Z,10.60
2019-03-29T06:39:26.240Z,10.60
2019-03-29T06:41:53.946Z,10.60
2019-03-29T06:44:21.522Z,10.60
2019-03-29T06:46:49.355Z,10.60
2019-03-29T06:49:17.094Z,10.70
2019-03-29T06:51:47.714Z,10.70
2019-03-29T06:54:15.780Z,10.70
2019-03-29T06:56:44.807Z,10.60
2019-03-29T06:59:12.742Z,10.60
2019-03-29T07:01:40.863Z,10.60
2019-03-29T07:04:08.502Z,10.70
2019-03-29T07:06:37.667Z,10.60
2019-03-29T07:09:05.837Z,10.70
2019-03-29T07:11:33.744Z,10.70
2019-03-29T07:14:01.430Z,10.70
2019-03-29T07:16:29.355Z,10.80
2019-03-29T07:18:56.988Z,10.80
2019-03-29T07:21:25.214Z,10.80
2019-03-29T07:23:53.109Z,10.90
2019-03-29T07:26:21.281Z,10.90
2019-03-29T07:28:48.884Z,10.90
2019-03-29T07:31:17.965Z,11.00
2019-03-29T07:33:45.606Z,11.00
2019-03-29T07:36:13.375Z,11.10
2019-03-29T07:38:41.173Z,11.00
2019-03-29T07:41:09.647Z,11.00
2019-03-29T07:43:37.430Z,11.10
2019-03-29T07:46:05.097Z,11.10
2019-03-29T07:48:33.076Z,11.10
2019-03-29T07:51:00.864Z,11.20
2019-03-29T07:53:28.537Z,11.30
2019-03-29T07:55:56.413Z,11.30
2019-03-29T07:58:24.200Z,11.40
2019-03-29T08:00:52.097Z,11.40
2019-03-29T08:03:21.355Z,11.40
2019-03-29T08:05:49.736Z,11.40
2019-03-29T08:08:24.258Z,11.40
2019-03-29T08:10:47.838Z,11.50
2019-03-29T08:13:16.197Z,11.40
2019-03-29T08:15:44.521Z,11.40
2019-03-29T08:18:12.282Z,11.40
2019-03-29T08:20:43.801Z,11.50
2019-03-29T08:23:09.728Z,11.50
2019-03-29T08:25:37.333Z,11.50
2019-03-29T08:28:05.478Z,11.60
2019-03-29T08:30:33.917Z,11.60
2019-03-29T08:33:01.588Z,11.60
2019-03-29T08:35:29.606Z,11.80
2019-03-29T08:37:57.419Z,11.70
2019-03-29T08:40:25.003Z,11.80
2019-03-29T08:42:52.591Z,11.80
2019-03-29T08:45:20.260Z,12.00
2019-03-29T08:47:47.919Z,12.00
2019-03-29T08:50:15.968Z,12.00
2019-03-29T08:52:44.277Z,12.00
2019-03-29T08:55:12.235Z,12.00
2019-03-29T08:57:39.948Z,12.10
2019-03-29T09:00:08.017Z,12.10
2019-03-29T09:02:35.867Z,12.10
2019-03-29T09:05:04.576Z,12.20
2019-03-29T09:07:43.899Z,12.20
2019-03-29T09:10:04.717Z,12.40
2019-03-29T09:12:32.366Z,12.40
2019-03-29T09:15:03.394Z,12.50
2019-03-29T09:17:30.750Z,12.50
2019-03-29T09:19:58.314Z,12.50
2019-03-29T09:22:25.947Z,12.40
2019-03-29T09:24:53.926Z,12.30
2019-03-29T09:27:22.000Z,12.40
2019-03-29T09:29:50.029Z,12.40
2019-03-29T09:32:17.698Z,12.40
2019-03-29T09:34:45.277Z,12.50
2019-03-29T09:37:13.025Z,12.60
2019-03-29T09:39:41.018Z,12.60
2019-03-29T09:42:09.806Z,12.80
2019-03-29T09:44:37.726Z,12.80
2019-03-29T09:47:05.276Z,12.80
2019-03-29T09:49:33.046Z,13.00
2019-03-29T09:52:01.299Z,13.00
2019-03-29T09:54:29.313Z,13.10
2019-03-29T09:56:56.881Z,13.10
2019-03-29T09:59:24.653Z,13.10
2019-03-29T10:01:54.001Z,13.30
2019-03-29T10:04:21.830Z,13.30
2019-03-29T10:06:51.991Z,13.30
2019-03-29T10:09:19.906Z,13.30
2019-03-29T10:11:47.542Z,13.40
2019-03-29T10:14:15.244Z,13.50
2019-03-29T10:16:42.996Z,13.50
2019-03-29T10:19:11.162Z,13.60
2019-03-29T10:21:38.734Z,13.60
2019-03-29T10:24:06.359Z,13.60
2019-03-29T10:26:34.088Z,13.70
2019-03-29T10:29:01.728Z,13.70
2019-03-29T10:31:32.470Z,13.60
2019-03-29T10:34:01.464Z,13.50
2019-03-29T10:36:29.354Z,13.40
2019-03-29T10:38:57.354Z,13.20
2019-03-29T10:41:25.844Z,13.10
2019-03-29T10:43:54.578Z,13.20
2019-03-29T10:46:22.769Z,13.20
2019-03-29T10:48:50.497Z,13.10
2019-03-29T10:51:18.635Z,13.10
2019-03-29T10:53:46.576Z,13.10
2019-03-29T10:56:14.266Z,13.20
2019-03-29T10:58:44.846Z,13.30
2019-03-29T11:01:11.928Z,13.50
2019-03-29T11:03:39.487Z,13.50
2019-03-29T11:06:07.183Z,13.50
2019-03-29T11:08:34.859Z,13.50
2019-03-29T11:11:03.008Z,13.50
2019-03-29T11:13:30.779Z,13.60
2019-03-29T11:15:58.514Z,13.70
2019-03-29T11:18:26.045Z,13.70
2019-03-29T11:20:54.787Z,13.70
2019-03-29T11:23:23.313Z,13.80
2019-03-29T11:25:51.068Z,13.70
2019-03-29T11:28:18.907Z,13.80
2019-03-29T11:30:46.802Z,13.80
2019-03-29T11:33:14.572Z,13.80
2019-03-29T11:35:42.444Z,14.00
2019-03-29T11:38:10.327Z,13.90
2019-03-29T11:40:38.123Z,13.90
2019-03-29T11:43:05.788Z,14.00
2019-03-29T11:45:34.307Z,14.20
2019-03-29T11:48:08.883Z,14.40
2019-03-29T11:50:32.188Z,14.40
2019-03-29T11:53:00.391Z,14.40
2019-03-29T11:55:28.044Z,14.40
2019-03-29T11:57:56.123Z,14.50
2019-03-29T12:00:35.585Z,14.70
2019-03-29T12:03:04.134Z,14.80
2019-03-29T12:05:31.930Z,14.80
2019-03-29T12:08:00.746Z,14.80
2019-03-29T12:10:28.842Z,14.90
2019-03-29T12:12:56.511Z,14.90
2019-03-29T12:15:24.245Z,14.90
2019-03-29T12:17:51.939Z,15.00
2019-03-29T12:20:19.757Z,15.00
2019-03-29T12:22:47.326Z,15.10
2019-03-29T12:25:14.982Z,14.90
2019-03-29T12:27:43.011Z,14.90
2019-03-29T12:30:11.390Z,15.20
2019-03-29T12:32:39.257Z,15.30
2019-03-29T12:35:09.828Z,15.40
2019-03-29T12:37:36.484Z,15.40
2019-03-29T12:40:05.877Z,15.00
2019-03-29T12:42:33.536Z,14.90
2019-03-29T12:45:01.066Z,14.80
2019-03-29T12:47:28.760Z,14.80
2019-03-29T12:49:56.455Z,14.80
2019-03-29T12:52:24.442Z,14.70
2019-03-29T12:54:52.087Z,14.80
2019-03-29T12:57:19.757Z,14.90
2019-03-29T12:59:48.528Z,15.20
2019-03-29T13:02:17.295Z,15.20
2019-03-29T13:04:47.112Z,15.30
2019-03-29T13:07:17.643Z,15.30
2019-03-29T13:09:45.302Z,15.40
2019-03-29T13:12:13.063Z,15.40
2019-03-29T13:14:40.677Z,15.40
2019-03-29T13:17:08.297Z,15.50
2019-03-29T13:19:35.872Z,15.50
2019-03-29T13:22:05.911Z,15.50
2019-03-29T13:24:33.602Z,15.30
2019-03-29T13:27:02.145Z,15.30
2019-03-29T13:29:29.665Z,15.30
2019-03-29T13:31:57.693Z,15.20
2019-03-29T13:34:25.320Z,15.30
2019-03-29T13:36:53.243Z,15.40
2019-03-29T13:39:20.855Z,15.40
2019-03-29T13:41:48.535Z,15.40
2019-03-29T13:44:23.854Z,15.40
2019-03-29T13:46:46.618Z,15.40
2019-03-29T13:49:14.500Z,15.50
2019-03-29T13:51:42.139Z,15.60
2019-03-29T13:54:10.014Z,15.60
2019-03-29T13:56:38.800Z,15.50
2019-03-29T13:59:06.559Z,15.40
2019-03-29T14:01:34.281Z,15.40
2019-03-29T14:04:01.855Z,15.50
2019-03-29T14:06:29.391Z,15.60
2019-03-29T14:08:57.045Z,15.60
2019-03-29T14:11:24.762Z,15.70
2019-03-29T14:13:52.346Z,15.80
2019-03-29T14:16:19.874Z,15.80
2019-03-29T14:18:47.390Z,15.80
2019-03-29T14:21:14.969Z,15.70
2019-03-29T14:23:42.891Z,15.80
2019-03-29T14:26:10.422Z,15.80
2019-03-29T14:28:38.479Z,15.80
2019-03-29T14:31:06.024Z,15.70
2019-03-29T14:33:34.054Z,15.70
2019-03-29T14:36:01.624Z,15.70
2019-03-29T14:38:29.187Z,15.70
2019-03-29T14:40:56.770Z,15.70
2019-03-29T14:43:24.411Z,15.70
2019-03-29T14:45:52.299Z,15.70
2019-03-29T14:48:20.300Z,15.70
2019-03-29T14:50:47.975Z,15.80
2019-03-29T14:53:16.394Z,15.80
2019-03-29T14:55:43.930Z,15.90
2019-03-29T14:58:11.466Z,15.70
2019-03-29T15:00:41.151Z,15.80
2019-03-29T15:03:09.187Z,15.90
2019-03-29T15:05:37.371Z,16.00
2019-03-29T15:08:05.044Z,15.80
2019-03-29T15:10:33.960Z,15.80
2019-03-29T15:13:01.703Z,15.90
2019-03-29T15:15:29.430Z,15.90
2019-03-29T15:17:57.179Z,16.10
2019-03-29T15:20:24.733Z,16.20
2019-03-29T15:22:52.491Z,16.30
2019-03-29T15:25:20.433Z,16.20
2019-03-29T15:27:48.299Z,16.20
2019-03-29T15:30:18.145Z,16.10
2019-03-29T15:32:45.774Z,16.10
2019-03-29T15:35:13.438Z,16.10
2019-03-29T15:37:41.086Z,16.20
2019-03-29T15:40:09.228Z,16.20
2019-03-29T15:42:37.044Z,16.20
2019-03-29T15:45:04.947Z,16.30
2019-03-29T15:47:32.599Z,16.20
2019-03-29T15:50:00.533Z,16.20
2019-03-29T15:52:28.192Z,16.10
2019-03-29T15:54:56.561Z,16.20
2019-03-29T15:57:24.532Z,16.30
2019-03-29T15:59:52.444Z,16.30
2019-03-29T16:02:20.497Z,16.30
2019-03-29T16:04:48.035Z,16.40
2019-03-29T16:07:15.591Z,16.50
2019-03-29T16:09:44.273Z,16.50
2019-03-29T16:12:12.060Z,16.70
2019-03-29T16:14:39.607Z,16.80
2019-03-29T16:17:07.323Z,17.10
2019-03-29T16:19:35.100Z,17.20
2019-03-29T16:22:05.869Z,17.40
2019-03-29T16:24:32.398Z,17.50
2019-03-29T16:27:00.334Z,17.70
2019-03-29T16:29:27.924Z,17.90
2019-03-29T16:31:55.942Z,17.90
2019-03-29T16:34:23.975Z,17.80
2019-03-29T16:36:51.554Z,17.40
2019-03-29T16:39:19.186Z,17.30
2019-03-29T16:41:46.834Z,17.20
2019-03-29T16:44:14.359Z,16.90
2019-03-29T16:46:41.935Z,16.80
2019-03-29T16:49:10.675Z,16.70
2019-03-29T16:51:38.533Z,16.50
2019-03-29T16:54:07.307Z,16.40
2019-03-29T16:56:35.216Z,16.20
2019-03-29T16:59:03.189Z,16.10
2019-03-29T17:01:30.853Z,15.90
2019-03-29T17:03:58.727Z,15.80
2019-03-29T17:06:26.391Z,15.70
2019-03-29T17:08:53.999Z,15.70
2019-03-29T17:11:21.718Z,15.60
2019-03-29T17:13:49.596Z,15.50
2019-03-29T17:16:29.686Z,15.50
2019-03-29T17:18:49.304Z,15.50
2019-03-29T17:21:16.853Z,15.40
2019-03-29T17:23:45.082Z,15.40
2019-03-29T17:26:12.833Z,15.30
2019-03-29T17:28:40.578Z,15.20
2019-03-29T17:31:09.653Z,15.20
2019-03-29T17:33:37.268Z,15.10
2019-03-29T17:36:05.021Z,15.00
2019-03-29T17:38:33.247Z,15.00
2019-03-29T17:41:00.869Z,14.90
2019-03-29T17:43:28.584Z,14.80
2019-03-29T17:45:56.215Z,14.80
2019-03-29T17:48:23.895Z,14.70
2019-03-29T17:50:51.546Z,14.70
2019-03-29T17:53:19.123Z,14.70
2019-03-29T17:55:46.771Z,14.60
2019-03-29T17:58:14.444Z,14.50
2019-03-29T18:00:42.534Z,14.50
2019-03-29T18:03:10.140Z,14.50
2019-03-29T18:05:37.909Z,14.50
2019-03-29T18:08:05.638Z,14.40
2019-03-29T18:10:33.543Z,14.40
2019-03-29T18:13:01.340Z,14.40
2019-03-29T18:15:29.129Z,14.30
2019-03-29T18:17:57.779Z,14.30
2019-03-29T18:20:25.495Z,14.30
2019-03-29T18:22:53.250Z,14.20
2019-03-29T18:25:22.857Z,14.00
2019-03-29T18:27:50.683Z,14.00
2019-03-29T18:30:30.020Z,13.90
2019-03-29T18:32:58.182Z,13.90
2019-03-29T18:35:26.180Z,13.90
2019-03-29T18:37:54.000Z,13.80
2019-03-29T18:40:26.144Z,13.80
2019-03-29T18:42:54.256Z,13.80
2019-03-29T18:45:22.226Z,13.70
2019-03-29T18:47:50.328Z,13.60
2019-03-29T18:50:20.842Z,13.70
2019-03-29T18:52:48.540Z,13.80
2019-03-29T18:55:16.929Z,13.80
2019-03-29T18:57:44.528Z,13.70
2019-03-29T19:00:12.612Z,13.70
2019-03-29T19:02:40.148Z,13.60
2019-03-29T19:05:14.047Z,13.60
2019-03-29T19:07:41.914Z,13.50
2019-03-29T19:10:09.732Z,13.50
2019-03-29T19:12:37.860Z,13.40
2019-03-29T19:15:05.860Z,13.40
2019-03-29T19:17:34.025Z,13.30
2019-03-29T19:20:01.814Z,13.30
2019-03-29T19:22:29.646Z,13.30
2019-03-29T19:24:57.622Z,13.20
2019-03-29T19:27:26.415Z,13.10
2019-03-29T19:29:53.979Z,13.10
2019-03-29T19:32:22.093Z,13.00
2019-03-29T19:34:50.411Z,12.90
2019-03-29T19:37:18.250Z,12.80
2019-03-29T19:39:45.924Z,12.70
2019-03-29T19:42:16.624Z,12.60
2019-03-29T19:44:43.712Z,12.40
2019-03-29T19:47:13.733Z,12.30
2019-03-29T19:49:41.594Z,12.30
2019-03-29T19:52:09.200Z,12.10
2019-03-29T19:54:37.213Z,12.00
2019-03-29T19:57:04.994Z,12.00
2019-03-29T19:59:32.972Z,12.00
2019-03-29T20:02:00.574Z,12.00
2019-03-29T20:04:28.493Z,12.00
2019-03-29T20:06:56.396Z,11.90
2019-03-29T20:09:24.014Z,11.90
2019-03-29T20:11:52.271Z,12.00
2019-03-29T20:14:19.959Z,11.90
2019-03-29T20:16:47.606Z,12.00
2019-03-29T20:19:15.570Z,11.90
2019-03-29T20:21:43.953Z,12.00
2019-03-29T20:24:11.562Z,11.90
2019-03-29T20:26:39.804Z,11.90
2019-03-29T20:29:10.844Z,11.90
2019-03-29T20:31:38.765Z,11.80
2019-03-29T20:34:06.632Z,11.80
2019-03-29T20:36:35.081Z,11.70
2019-03-29T20:39:05.681Z,11.70
2019-03-29T20:41:33.940Z,11.60
2019-03-29T20:44:01.731Z,11.60
2019-03-29T20:46:29.394Z,11.60
2019-03-29T20:48:57.439Z,11.50
2019-03-29T20:51:25.059Z,11.40
2019-03-29T20:53:52.599Z,11.40
2019-03-29T20:56:20.424Z,11.30
2019-03-29T20:58:48.019Z,11.20
2019-03-29T21:01:16.181Z,11.10
2019-03-29T21:03:44.477Z,11.10
2019-03-29T21:06:12.081Z,11.00
2019-03-29T21:08:39.870Z,10.90
2019-03-29T21:11:07.440Z,10.80
2019-03-29T21:13:35.203Z,10.70
2019-03-29T21:16:03.179Z,10.70
2019-03-29T21:18:31.082Z,10.60
2019-03-29T21:20:58.918Z,10.60
2019-03-29T21:23:30.977Z,10.50
2019-03-29T21:25:58.606Z,10.50
2019-03-29T21:28:26.604Z,10.50
2019-03-29T21:30:57.648Z,10.40
2019-03-29T21:33:25.821Z,10.40
2019-03-29T21:35:53.964Z,10.40
2019-03-29T21:38:21.964Z,10.40
2019-03-29T21:40:50.239Z,10.40
2019-03-29T21:43:17.958Z,10.50
2019-03-29T21:45:45.609Z,10.40
2019-03-29T21:48:27.990Z,10.50
2019-03-29T21:50:44.509Z,10.60
2019-03-29T21:53:12.220Z,10.40
2019-03-29T21:55:40.143Z,10.60
2019-03-29T21:58:08.391Z,10.80
2019-03-29T22:00:35.932Z,10.70
2019-03-29T22:03:03.608Z,10.80
2019-03-29T22:05:31.421Z,10.60
2019-03-29T22:07:59.299Z,10.70
2019-03-29T22:10:26.859Z,10.70
2019-03-29T22:12:54.552Z,10.70
2019-03-29T22:15:22.645Z,10.70
2019-03-29T22:17:55.109Z,10.60
2019-03-29T22:20:22.858Z,10.70
2019-03-29T22:22:51.001Z,10.80
2019-03-29T22:25:18.995Z,10.70
2019-03-29T22:27:46.555Z,10.70
2019-03-29T22:30:14.699Z,10.60
2019-03-29T22:32:42.400Z,10.50
2019-03-29T22:35:10.366Z,10.50
2019-03-29T22:37:38.397Z,10.60
2019-03-29T22:40:07.772Z,10.50
2019-03-29T22:42:35.414Z,10.40
2019-03-29T22:45:04.486Z,10.40
2019-03-29T22:47:35.982Z,10.40
2019-03-29T22:50:04.063Z,10.40
2019-03-29T22:52:32.634Z,10.30
2019-03-29T22:55:00.560Z,10.20
2019-03-29T22:57:28.392Z,10.10
2019-03-29T22:59:55.992Z,10.00
2019-03-29T23:02:23.801Z,10.00
2019-03-29T23:04:51.848Z,10.00
2019-03-29T23:07:19.519Z,9.90
2019-03-29T23:09:47.488Z,9.90
2019-03-29T23:12:15.187Z,9.80
2019-03-29T23:14:43.029Z,9.80
2019-03-29T23:17:10.756Z,9.80
2019-03-29T23:19:38.402Z,9.70
2019-03-29T23:22:06.222Z,9.70
2019-03-29T23:24:33.835Z,9.60
2019-03-29T23:27:01.830Z,9.60
2019-03-29T23:29:29.490Z,9.70
2019-03-29T23:31:57.574Z,9.60
2019-03-29T23:34:28.836Z,9.50
2019-03-29T23:36:56.788Z,9.50
2019-03-29T23:39:27.042Z,9.50
2019-03-29T23:41:54.914Z,9.50
2019-03-29T23:44:28.554Z,9.50
2019-03-29T23:46:57.341Z,9.40
2019-03-29T23:49:25.342Z,9.50
2019-03-29T23:51:53.782Z,9.50
2019-03-29T23:54:21.730Z,9.60
2019-03-29T23:56:49.386Z,9.40
2019-03-29T23:59:17.071Z,9.20
